Time;durP1;ratioP1;P1;durP2;ratioP2;P2;SDS_P1;SDS_P2;PMS_P1;PMS_P2;Temp;Humidity;BMP_temperature;BMP_pressure;BME280_temperature;BME280_humidity;BME280_pressure;Samples;Min_cycle;Max_cycle;Signal;HPM_P1;HPM_P2
2022/12/10 00:00:37;;;;;;;47.17;28.70;;;;;;;;;;5088155;28;20598;-79
2022/12/10 00:03:04;;;;;;;44.73;27.27;;;;;;;;;;5087135;28;20241;-79
2022/12/10 00:05:34;;;;;;;48.87;26.43;;;;;;;;;;5088425;28;20580;-79
2022/12/10 00:08:01;;;;;;;44.03;26.27;;;;;;;;;;5089124;28;20228;-79
2022/12/10 00:10:28;;;;;;;46.00;27.37;;;;;;;;;;5094245;28;20268;-79
2022/12/10 00:12:57;;;;;;;46.33;27.03;;;;;;;;;;5095813;28;20245;-79
2022/12/10 00:15:25;;;;;;;46.40;26.70;;;;;;;;;;5086323;28;20226;-79
2022/12/10 00:17:52;;;;;;;54.43;28.97;;;;;;;;;;5092951;28;20682;-80
2022/12/10 00:20:19;;;;;;;52.40;28.63;;;;;;;;;;5079292;28;20282;-79
2022/12/10 00:22:46;;;;;;;51.23;27.33;;;;;;;;;;5079141;28;20227;-79
2022/12/10 00:25:13;;;;;;;45.50;26.63;;;;;;;;;;5084375;28;20619;-79
2022/12/10 00:27:41;;;;;;;48.57;26.97;;;;;;;;;;5094724;28;20198;-80
2022/12/10 00:30:10;;;;;;;47.67;27.80;;;;;;;;;;5094973;28;20222;-78
2022/12/10 00:32:39;;;;;;;49.73;28.23;;;;;;;;;;5094924;28;20753;-80
2022/12/10 00:35:07;;;;;;;48.83;27.90;;;;;;;;;;5095188;28;20201;-78
2022/12/10 00:37:34;;;;;;;50.80;28.80;;;;;;;;;;5091999;28;20198;-79
2022/12/10 00:40:02;;;;;;;49.23;29.83;;;;;;;;;;5076513;28;20676;-79
2022/12/10 00:42:29;;;;;;;48.23;28.03;;;;;;;;;;5079119;28;20195;-80
2022/12/10 00:44:56;;;;;;;54.07;28.23;;;;;;;;;;5074666;28;20196;-79
2022/12/10 00:47:25;;;;;;;47.63;30.20;;;;;;;;;;5075559;28;20268;-80
2022/12/10 00:49:52;;;;;;;52.37;30.10;;;;;;;;;;5092583;28;20202;-78
2022/12/10 00:52:19;;;;;;;58.57;32.93;;;;;;;;;;5095111;28;20574;-79
2022/12/10 00:54:46;;;;;;;58.13;33.73;;;;;;;;;;5089071;28;20234;-80
2022/12/10 00:57:14;;;;;;;60.07;34.80;;;;;;;;;;5080418;28;20576;-78
2022/12/10 00:59:41;;;;;;;64.43;36.53;;;;;;;;;;5074747;28;20285;-80
2022/12/10 01:02:08;;;;;;;63.87;36.43;;;;;;;;;;5075359;28;20600;-80
2022/12/10 01:04:37;;;;;;;76.07;41.63;;;;;;;;;;5086817;28;20675;-80
2022/12/10 01:07:04;;;;;;;77.20;41.27;;;;;;;;;;5073801;28;20705;-80
2022/12/10 01:09:31;;;;;;;65.87;36.43;;;;;;;;;;5074051;28;20265;-80
2022/12/10 01:11:59;;;;;;;65.53;36.20;;;;;;;;;;5074179;28;20277;-80
2022/12/10 01:14:28;;;;;;;52.57;31.20;;;;;;;;;;5074294;28;20199;-78
2022/12/10 01:16:56;;;;;;;50.27;29.33;;;;;;;;;;5087101;28;20629;-81
2022/12/10 01:19:24;;;;;;;53.20;31.03;;;;;;;;;;5074061;28;20257;-78
2022/12/10 01:21:53;;;;;;;48.10;29.27;;;;;;;;;;5081219;28;20191;-81
2022/12/10 01:24:20;;;;;;;62.70;33.70;;;;;;;;;;5094444;28;20279;-79
2022/12/10 01:26:47;;;;;;;56.67;33.17;;;;;;;;;;5080751;28;20276;-79
2022/12/10 01:29:15;;;;;;;60.70;33.83;;;;;;;;;;5094038;28;20218;-80
2022/12/10 01:31:42;;;;;;;55.97;31.77;;;;;;;;;;5093645;28;20307;-78
2022/12/10 01:34:13;;;;;;;55.40;32.30;;;;;;;;;;5094073;28;20244;-78
2022/12/10 01:36:42;;;;;;;58.63;32.83;;;;;;;;;;5093503;28;20225;-78
2022/12/10 01:39:11;;;;;;;58.63;33.10;;;;;;;;;;5083891;28;20237;-79
2022/12/10 01:41:40;;;;;;;61.13;34.77;;;;;;;;;;5073686;28;20737;-83
2022/12/10 01:44:27;;;;;;;57.70;32.73;;;;;;;;;;5081212;28;20771;-82
2022/12/10 01:46:56;;;;;;;53.87;31.80;;;;;;;;;;5073829;28;20652;-82
2022/12/10 01:49:24;;;;;;;53.30;30.03;;;;;;;;;;5073658;28;20256;-82
2022/12/10 01:51:53;;;;;;;52.30;29.77;;;;;;;;;;5074315;28;20215;-83
2022/12/10 01:54:22;;;;;;;51.63;28.60;;;;;;;;;;5075403;28;20208;-84
2022/12/10 01:56:53;;;;;;;50.13;28.83;;;;;;;;;;5075657;28;20724;-82
2022/12/10 01:59:20;;;;;;;49.10;28.60;;;;;;;;;;5094329;28;20250;-83
2022/12/10 02:01:51;;;;;;;48.87;27.20;;;;;;;;;;5093127;28;20650;-82
2022/12/10 02:04:25;;;;;;;48.17;27.33;;;;;;;;;;5093664;28;20600;-82
2022/12/10 02:06:55;;;;;;;50.97;28.83;;;;;;;;;;5093918;28;20202;-82
2022/12/10 02:09:27;;;;;;;42.17;25.10;;;;;;;;;;5093393;28;20203;-83
2022/12/10 02:12:00;;;;;;;38.47;21.50;;;;;;;;;;5093759;28;20226;-83
2022/12/10 02:14:31;;;;;;;35.57;20.57;;;;;;;;;;5077433;28;20250;-83
2022/12/10 02:17:01;;;;;;;33.87;20.40;;;;;;;;;;5073046;28;20199;-83
2022/12/10 02:19:36;;;;;;;33.53;20.27;;;;;;;;;;5072992;28;20210;-83
2022/12/10 02:22:04;;;;;;;35.90;20.90;;;;;;;;;;5072205;28;20191;-83
2022/12/10 02:24:35;;;;;;;34.03;21.13;;;;;;;;;;5073199;28;20199;-83
2022/12/10 02:27:06;;;;;;;42.30;21.70;;;;;;;;;;5072878;28;20217;-82
2022/12/10 02:29:36;;;;;;;36.17;21.13;;;;;;;;;;5072843;28;20244;-83
2022/12/10 02:32:05;;;;;;;35.67;21.37;;;;;;;;;;5086877;28;20257;-82
2022/12/10 02:34:35;;;;;;;35.43;21.27;;;;;;;;;;5082026;28;20695;-83
2022/12/10 02:37:04;;;;;;;33.23;20.70;;;;;;;;;;5091844;28;20248;-84
2022/12/10 02:39:33;;;;;;;38.10;21.77;;;;;;;;;;5072903;28;20195;-83
2022/12/10 02:42:02;;;;;;;42.43;23.80;;;;;;;;;;5072808;28;20234;-83
2022/12/10 02:44:30;;;;;;;36.53;23.30;;;;;;;;;;5072597;28;20207;-83
2022/12/10 02:46:59;;;;;;;41.17;24.40;;;;;;;;;;5072672;28;20199;-83
2022/12/10 02:49:27;;;;;;;38.23;23.80;;;;;;;;;;5072794;28;20207;-83
2022/12/10 02:51:54;;;;;;;40.70;25.03;;;;;;;;;;5092213;28;20218;-83
2022/12/10 02:54:41;;;;;;;41.63;24.20;;;;;;;;;;5093005;28;20203;-83
2022/12/10 02:57:19;;;;;;;40.63;23.33;;;;;;;;;;5091869;28;20198;-83
2022/12/10 02:59:57;;;;;;;37.47;21.70;;;;;;;;;;5092435;28;20233;-83
2022/12/10 03:02:31;;;;;;;38.33;23.10;;;;;;;;;;5092623;28;20701;-83
2022/12/10 03:05:00;;;;;;;39.77;22.83;;;;;;;;;;5089380;28;20198;-83
2022/12/10 03:07:32;;;;;;;39.20;22.57;;;;;;;;;;5073219;28;20203;-83
2022/12/10 03:10:02;;;;;;;37.07;22.20;;;;;;;;;;5078645;28;20257;-83
2022/12/10 03:12:31;;;;;;;38.67;21.43;;;;;;;;;;5092664;28;20591;-83
2022/12/10 03:14:59;;;;;;;39.80;22.87;;;;;;;;;;5084875;28;20256;-83
2022/12/10 03:17:29;;;;;;;37.63;22.73;;;;;;;;;;5089343;28;20234;-81
2022/12/10 03:19:57;;;;;;;38.30;22.33;;;;;;;;;;5092840;28;20198;-83
2022/12/10 03:22:24;;;;;;;38.93;22.97;;;;;;;;;;5073154;28;20249;-82
2022/12/10 03:24:52;;;;;;;43.03;24.87;;;;;;;;;;5072814;28;20215;-83
2022/12/10 03:27:21;;;;;;;39.93;24.07;;;;;;;;;;5072909;28;20195;-83
2022/12/10 03:29:51;;;;;;;40.77;23.47;;;;;;;;;;5072505;28;20690;-82
2022/12/10 03:32:19;;;;;;;40.20;24.00;;;;;;;;;;5072248;28;20710;-81
2022/12/10 03:34:48;;;;;;;40.60;23.47;;;;;;;;;;5086399;28;20658;-81
2022/12/10 03:37:16;;;;;;;40.07;23.67;;;;;;;;;;5096736;28;20631;-82
2022/12/10 03:39:44;;;;;;;39.90;22.80;;;;;;;;;;5091249;28;20206;-81
2022/12/10 03:42:11;;;;;;;38.17;23.67;;;;;;;;;;5076513;28;20191;-81
2022/12/10 03:44:40;;;;;;;41.43;24.00;;;;;;;;;;5076186;28;20572;-83
2022/12/10 03:47:09;;;;;;;36.57;22.97;;;;;;;;;;5075729;28;20241;-81
2022/12/10 03:49:36;;;;;;;37.33;22.73;;;;;;;;;;5077471;28;20205;-83
2022/12/10 03:52:05;;;;;;;35.13;21.53;;;;;;;;;;5077698;28;20227;-83
2022/12/10 03:54:32;;;;;;;36.70;21.83;;;;;;;;;;5077430;28;20547;-83
2022/12/10 03:56:59;;;;;;;40.37;21.30;;;;;;;;;;5084830;28;20239;-83
2022/12/10 03:59:27;;;;;;;36.73;22.10;;;;;;;;;;5086598;28;20294;-83
2022/12/10 04:01:54;;;;;;;36.03;21.77;;;;;;;;;;5095334;28;20198;-83
2022/12/10 04:04:21;;;;;;;38.63;22.73;;;;;;;;;;5086480;28;20269;-83
2022/12/10 04:06:49;;;;;;;40.50;23.23;;;;;;;;;;5087827;28;20202;-83
2022/12/10 04:09:18;;;;;;;37.57;22.33;;;;;;;;;;5075989;28;20317;-83
2022/12/10 04:11:45;;;;;;;41.50;24.17;;;;;;;;;;5078269;28;20215;-83
2022/12/10 04:16:58;;;;;;;42.37;24.80;;;;;;;;;;5092389;28;20584;-83
2022/12/10 04:19:25;;;;;;;46.83;26.07;;;;;;;;;;5084805;28;20685;-83
2022/12/10 04:27:25;;;;;;;37.10;21.97;;;;;;;;;;5075471;28;20288;-83
2022/12/10 04:29:56;;;;;;;37.73;22.20;;;;;;;;;;5075033;28;20590;-83
2022/12/10 04:32:23;;;;;;;36.90;22.07;;;;;;;;;;5091967;28;20306;-83
2022/12/10 04:34:52;;;;;;;38.40;22.77;;;;;;;;;;5079868;28;20261;-83
2022/12/10 04:37:20;;;;;;;40.70;22.67;;;;;;;;;;5085759;28;20205;-83
2022/12/10 04:39:48;;;;;;;36.73;22.27;;;;;;;;;;5079842;28;20230;-83
2022/12/10 04:42:16;;;;;;;39.30;23.37;;;;;;;;;;5095019;28;20248;-83
2022/12/10 04:44:43;;;;;;;36.97;22.37;;;;;;;;;;5094348;28;20243;-84
2022/12/10 04:47:11;;;;;;;35.07;22.03;;;;;;;;;;5089124;28;20199;-83
2022/12/10 04:49:38;;;;;;;40.03;23.80;;;;;;;;;;5075221;28;20234;-83
2022/12/10 04:52:07;;;;;;;39.90;24.20;;;;;;;;;;5074931;28;20215;-83
2022/12/10 04:54:34;;;;;;;43.07;24.40;;;;;;;;;;5075064;28;20202;-83
2022/12/10 04:57:03;;;;;;;42.53;24.00;;;;;;;;;;5074917;28;20264;-83
2022/12/10 04:59:30;;;;;;;40.80;24.60;;;;;;;;;;5074249;28;20231;-83
2022/12/10 05:01:57;;;;;;;41.37;23.77;;;;;;;;;;5075227;28;20244;-83
2022/12/10 05:04:25;;;;;;;42.57;23.40;;;;;;;;;;5088571;28;20237;-83
2022/12/10 05:06:53;;;;;;;31.87;19.93;;;;;;;;;;5095523;28;20581;-83
2022/12/10 05:09:20;;;;;;;32.43;19.90;;;;;;;;;;5094754;28;20202;-83
2022/12/10 05:11:48;;;;;;;34.43;19.73;;;;;;;;;;5094474;28;20255;-82
2022/12/10 05:14:17;;;;;;;31.00;18.87;;;;;;;;;;5094828;28;20276;-83
2022/12/10 05:16:44;;;;;;;37.47;20.80;;;;;;;;;;5094351;28;20244;-83
2022/12/10 05:19:11;;;;;;;37.77;20.57;;;;;;;;;;5093463;28;20628;-83
2022/12/10 05:24:23;;;;;;;41.00;22.60;;;;;;;;;;5094581;28;20188;-83
2022/12/10 05:26:51;;;;;;;34.77;20.67;;;;;;;;;;5094514;28;20651;-83
2022/12/10 05:29:20;;;;;;;36.93;20.57;;;;;;;;;;5094628;28;20218;-83
2022/12/10 05:31:47;;;;;;;34.07;20.37;;;;;;;;;;5094390;28;20256;-83
2022/12/10 05:34:15;;;;;;;33.23;19.43;;;;;;;;;;5093543;28;20256;-83
2022/12/10 05:36:42;;;;;;;31.10;19.03;;;;;;;;;;5094513;28;20194;-83
2022/12/10 05:39:10;;;;;;;35.80;20.67;;;;;;;;;;5094528;28;20286;-83
2022/12/10 05:41:38;;;;;;;36.13;21.10;;;;;;;;;;5092200;28;20282;-83
2022/12/10 05:44:05;;;;;;;35.73;20.97;;;;;;;;;;5077207;28;20199;-83
2022/12/10 05:46:35;;;;;;;36.73;20.37;;;;;;;;;;5078927;28;20268;-82
2022/12/10 05:49:03;;;;;;;35.30;21.20;;;;;;;;;;5074201;28;20659;-83
2022/12/10 05:51:32;;;;;;;37.33;21.60;;;;;;;;;;5076356;28;20229;-82
2022/12/10 05:54:01;;;;;;;119.27;61.83;;;;;;;;;;5073644;28;20202;-82
2022/12/10 05:56:29;;;;;;;102.27;51.20;;;;;;;;;;5073433;28;20209;-82
2022/12/10 05:59:00;;;;;;;57.03;29.73;;;;;;;;;;5073855;28;20238;-82
2022/12/10 06:01:28;;;;;;;41.10;22.53;;;;;;;;;;5073771;28;20227;-82
2022/12/10 06:03:58;;;;;;;56.20;31.70;;;;;;;;;;5092085;28;20197;-82
2022/12/10 06:06:29;;;;;;;53.80;27.57;;;;;;;;;;5092998;28;20220;-83
2022/12/10 06:09:00;;;;;;;54.13;28.67;;;;;;;;;;5093497;28;20768;-82
2022/12/10 06:11:28;;;;;;;43.53;24.97;;;;;;;;;;5082380;28;20279;-82
2022/12/10 06:13:58;;;;;;;43.27;25.50;;;;;;;;;;5073377;28;20261;-83
2022/12/10 06:16:28;;;;;;;44.33;24.63;;;;;;;;;;5075839;28;20685;-82
2022/12/10 06:18:57;;;;;;;40.43;23.80;;;;;;;;;;5076246;28;20629;-82
2022/12/10 06:21:24;;;;;;;45.03;24.13;;;;;;;;;;5073339;28;20788;-83
2022/12/10 06:23:52;;;;;;;42.53;24.00;;;;;;;;;;5072965;28;20205;-82
2022/12/10 06:26:21;;;;;;;48.63;25.93;;;;;;;;;;5073228;28;20245;-83
2022/12/10 06:28:48;;;;;;;79.13;38.50;;;;;;;;;;5075663;28;20226;-83
2022/12/10 06:31:16;;;;;;;75.90;38.37;;;;;;;;;;5094068;28;20202;-82
2022/12/10 06:33:43;;;;;;;81.23;39.40;;;;;;;;;;5092707;28;20210;-83
2022/12/10 06:36:13;;;;;;;74.53;37.53;;;;;;;;;;5093079;28;20206;-82
2022/12/10 06:38:40;;;;;;;61.43;31.17;;;;;;;;;;5078132;28;20210;-83
2022/12/10 06:41:08;;;;;;;54.07;29.53;;;;;;;;;;5072932;28;20201;-83
2022/12/10 06:43:36;;;;;;;50.40;28.03;;;;;;;;;;5073043;28;20197;-82
2022/12/10 06:46:07;;;;;;;50.60;26.63;;;;;;;;;;5073086;28;20206;-83
2022/12/10 06:48:35;;;;;;;59.27;29.57;;;;;;;;;;5073109;28;20301;-83
2022/12/10 06:51:02;;;;;;;64.27;32.17;;;;;;;;;;5072862;28;20258;-83
2022/12/10 06:53:31;;;;;;;55.07;28.07;;;;;;;;;;5073173;28;20277;-83
2022/12/10 06:55:59;;;;;;;47.03;25.83;;;;;;;;;;5081861;28;20205;-82
2022/12/10 06:58:30;;;;;;;45.20;25.57;;;;;;;;;;5092645;28;20231;-82
2022/12/10 07:01:03;;;;;;;42.60;23.43;;;;;;;;;;5092446;28;20242;-83
2022/12/10 07:03:30;;;;;;;40.97;24.07;;;;;;;;;;5082225;28;20266;-83
2022/12/10 07:05:58;;;;;;;41.47;23.87;;;;;;;;;;5072558;28;20225;-82
2022/12/10 07:08:25;;;;;;;40.97;23.30;;;;;;;;;;5090025;28;20198;-82
2022/12/10 07:10:54;;;;;;;43.20;24.43;;;;;;;;;;5087286;28;20248;-83
2022/12/10 07:13:21;;;;;;;45.60;24.40;;;;;;;;;;5092604;28;20226;-83
2022/12/10 07:15:49;;;;;;;48.17;26.40;;;;;;;;;;5093045;28;20249;-83
2022/12/10 07:18:16;;;;;;;54.10;27.97;;;;;;;;;;5085723;28;20202;-82
2022/12/10 07:20:43;;;;;;;62.30;31.73;;;;;;;;;;5072546;28;20196;-82
2022/12/10 07:23:11;;;;;;;61.57;32.60;;;;;;;;;;5072402;28;20666;-82
2022/12/10 07:25:38;;;;;;;54.10;29.23;;;;;;;;;;5072460;28;20695;-82
2022/12/10 07:28:06;;;;;;;51.57;27.90;;;;;;;;;;5072851;28;20202;-82
2022/12/10 07:30:34;;;;;;;68.50;33.43;;;;;;;;;;5072305;28;20250;-82
2022/12/10 07:33:04;;;;;;;48.20;25.90;;;;;;;;;;5073270;28;20704;-87
2022/12/10 07:35:31;;;;;;;40.87;22.07;;;;;;;;;;5090260;28;20271;-85
2022/12/10 07:37:59;;;;;;;37.53;22.50;;;;;;;;;;5092670;28;20232;-85
2022/12/10 07:40:26;;;;;;;38.10;21.53;;;;;;;;;;5082358;28;20298;-85
2022/12/10 07:42:53;;;;;;;39.03;21.40;;;;;;;;;;5077529;28;20225;-85
2022/12/10 07:45:22;;;;;;;41.20;22.67;;;;;;;;;;5076467;28;20619;-86
2022/12/10 07:47:50;;;;;;;37.90;22.33;;;;;;;;;;5072425;28;20249;-85
2022/12/10 07:50:17;;;;;;;44.40;22.67;;;;;;;;;;5072014;28;20230;-85
2022/12/10 07:52:45;;;;;;;35.30;22.13;;;;;;;;;;5090697;28;20228;-84
2022/12/10 07:55:12;;;;;;;37.80;22.40;;;;;;;;;;5092080;28;20604;-84
2022/12/10 07:57:39;;;;;;;36.67;22.57;;;;;;;;;;5084402;28;20241;-85
2022/12/10 08:00:07;;;;;;;42.03;23.70;;;;;;;;;;5095518;28;20230;-84
2022/12/10 08:02:36;;;;;;;41.40;23.70;;;;;;;;;;5095749;28;20275;-84
2022/12/10 08:05:04;;;;;;;40.23;23.20;;;;;;;;;;5087344;28;20747;-83
2022/12/10 08:07:31;;;;;;;44.97;25.07;;;;;;;;;;5082654;28;20251;-83
2022/12/10 08:09:58;;;;;;;44.03;25.70;;;;;;;;;;5080254;28;20318;-83
2022/12/10 08:12:26;;;;;;;44.03;26.07;;;;;;;;;;5074090;28;20237;-83
2022/12/10 08:14:53;;;;;;;41.37;25.83;;;;;;;;;;5072522;28;20200;-83
2022/12/10 08:17:20;;;;;;;40.37;25.70;;;;;;;;;;5076072;28;20219;-85
2022/12/10 08:19:50;;;;;;;38.93;24.30;;;;;;;;;;5086363;28;20196;-85
2022/12/10 08:22:18;;;;;;;36.80;22.73;;;;;;;;;;5079216;28;20289;-85
2022/12/10 08:24:45;;;;;;;33.10;21.97;;;;;;;;;;5084728;28;20194;-84
2022/12/10 08:27:12;;;;;;;33.90;21.67;;;;;;;;;;5094510;28;20226;-84
2022/12/10 08:29:40;;;;;;;31.27;21.37;;;;;;;;;;5091071;28;20234;-85
2022/12/10 08:32:07;;;;;;;32.67;21.53;;;;;;;;;;5093797;28;20731;-85
2022/12/10 08:34:34;;;;;;;36.27;23.03;;;;;;;;;;5093290;28;20225;-85
2022/12/10 08:37:03;;;;;;;38.57;24.50;;;;;;;;;;5091480;28;20270;-85
2022/12/10 08:39:30;;;;;;;33.40;24.00;;;;;;;;;;5095350;28;20293;-86
2022/12/10 08:41:57;;;;;;;41.80;28.33;;;;;;;;;;5096077;28;20231;-85
2022/12/10 08:44:25;;;;;;;46.80;31.80;;;;;;;;;;5095549;28;20198;-85
2022/12/10 08:46:52;;;;;;;51.93;35.30;;;;;;;;;;5087417;28;20625;-86
2022/12/10 08:49:19;;;;;;;57.93;37.80;;;;;;;;;;5075367;28;20205;-88
2022/12/10 08:51:47;;;;;;;46.93;33.37;;;;;;;;;;5074107;28;20619;-84
2022/12/10 08:54:16;;;;;;;70.73;45.77;;;;;;;;;;5085411;28;20218;-84
2022/12/10 08:56:43;;;;;;;49.57;34.60;;;;;;;;;;5081657;28;20190;-83
2022/12/10 08:59:10;;;;;;;39.13;29.43;;;;;;;;;;5094509;28;20251;-84
2022/12/10 09:01:38;;;;;;;47.03;34.23;;;;;;;;;;5093650;28;20256;-84
2022/12/10 09:04:05;;;;;;;38.27;28.63;;;;;;;;;;5094222;28;20195;-84
2022/12/10 09:06:32;;;;;;;32.43;25.10;;;;;;;;;;5085914;28;20195;-84
2022/12/10 09:08:59;;;;;;;35.97;24.00;;;;;;;;;;5086007;28;20198;-84
2022/12/10 09:11:29;;;;;;;31.30;24.17;;;;;;;;;;5079007;28;20203;-84
2022/12/10 09:13:57;;;;;;;30.57;22.83;;;;;;;;;;5088522;28;20579;-83
2022/12/10 09:16:29;;;;;;;34.70;26.53;;;;;;;;;;5079815;28;20731;-84
2022/12/10 09:18:56;;;;;;;36.13;25.97;;;;;;;;;;5091820;28;20206;-85
2022/12/10 09:21:23;;;;;;;33.87;23.87;;;;;;;;;;5089275;28;20196;-84
2022/12/10 09:23:51;;;;;;;29.87;24.17;;;;;;;;;;5087547;28;20194;-83
2022/12/10 09:26:19;;;;;;;33.57;24.43;;;;;;;;;;5085928;28;20202;-83
2022/12/10 09:28:48;;;;;;;33.20;24.07;;;;;;;;;;5085491;28;20210;-82
2022/12/10 09:31:17;;;;;;;31.70;24.10;;;;;;;;;;5073307;28;20252;-79
2022/12/10 09:33:44;;;;;;;29.90;22.87;;;;;;;;;;5070559;28;21014;-81
2022/12/10 09:36:12;;;;;;;33.03;24.13;;;;;;;;;;5071847;28;20290;-81
2022/12/10 09:38:40;;;;;;;31.87;24.43;;;;;;;;;;5072444;28;20202;-81
2022/12/10 09:41:18;;;;;;;34.27;26.33;;;;;;;;;;5070816;28;20232;-81
2022/12/10 09:43:49;;;;;;;35.53;26.90;;;;;;;;;;5076032;28;20260;-80
2022/12/10 09:46:23;;;;;;;38.67;30.10;;;;;;;;;;5092497;28;20204;-80
2022/12/10 09:48:57;;;;;;;47.00;35.03;;;;;;;;;;5076972;28;20206;-79
2022/12/10 09:51:25;;;;;;;38.17;28.60;;;;;;;;;;5087270;28;20198;-79
2022/12/10 09:53:58;;;;;;;36.37;28.20;;;;;;;;;;5075079;28;20309;-80
2022/12/10 09:56:27;;;;;;;34.93;26.63;;;;;;;;;;5080328;28;20268;-81
2022/12/10 09:58:56;;;;;;;38.73;28.00;;;;;;;;;;5079913;28;20204;-81
2022/12/10 10:01:26;;;;;;;41.60;29.17;;;;;;;;;;5090601;28;20275;-81
2022/12/10 10:03:54;;;;;;;38.73;29.40;;;;;;;;;;5085243;28;20198;-81
2022/12/10 10:06:23;;;;;;;41.40;29.93;;;;;;;;;;5078866;28;20238;-81
2022/12/10 10:08:52;;;;;;;38.13;29.07;;;;;;;;;;5078645;28;20202;-81
2022/12/10 10:11:21;;;;;;;38.27;29.73;;;;;;;;;;5077108;28;20199;-81
2022/12/10 10:13:50;;;;;;;44.23;32.03;;;;;;;;;;5072675;28;20699;-81
2022/12/10 10:16:24;;;;;;;41.87;31.27;;;;;;;;;;5079795;28;20206;-81
2022/12/10 10:18:54;;;;;;;43.03;32.90;;;;;;;;;;5082826;28;20245;-81
2022/12/10 10:21:23;;;;;;;42.23;32.83;;;;;;;;;;5084849;28;20601;-81
2022/12/10 10:23:50;;;;;;;46.77;34.67;;;;;;;;;;5087778;28;20198;-81
2022/12/10 10:26:18;;;;;;;45.30;35.00;;;;;;;;;;5072838;28;20231;-81
2022/12/10 10:28:46;;;;;;;40.70;32.97;;;;;;;;;;5072485;28;20191;-81
2022/12/10 10:31:19;;;;;;;63.47;45.33;;;;;;;;;;5084058;28;20245;-81
2022/12/10 10:33:56;;;;;;;43.27;31.93;;;;;;;;;;5087784;28;20295;-80
2022/12/10 10:36:24;;;;;;;45.27;34.00;;;;;;;;;;5086719;28;20624;-80
2022/12/10 10:38:51;;;;;;;41.40;32.00;;;;;;;;;;5085918;28;20742;-80
2022/12/10 10:41:18;;;;;;;41.33;32.03;;;;;;;;;;5078129;28;20267;-81
2022/12/10 10:43:47;;;;;;;41.60;32.07;;;;;;;;;;5077702;28;20681;-81
2022/12/10 10:46:16;;;;;;;42.33;31.70;;;;;;;;;;5072083;28;20289;-80
2022/12/10 10:48:43;;;;;;;39.13;29.97;;;;;;;;;;5084918;28;20202;-80
2022/12/10 10:51:18;;;;;;;36.77;29.37;;;;;;;;;;5071587;28;20210;-80
2022/12/10 10:53:46;;;;;;;34.80;27.40;;;;;;;;;;5071418;28;20227;-80
2022/12/10 10:56:17;;;;;;;29.17;22.37;;;;;;;;;;5076798;28;20210;-80
2022/12/10 10:58:51;;;;;;;29.83;21.90;;;;;;;;;;5080479;28;20210;-80
2022/12/10 11:01:18;;;;;;;25.90;19.93;;;;;;;;;;5086534;28;20238;-80
2022/12/10 11:03:48;;;;;;;28.17;21.17;;;;;;;;;;5079117;28;20244;-80
2022/12/10 11:06:18;;;;;;;20.43;16.87;;;;;;;;;;5076117;28;20272;-80
2022/12/10 11:08:47;;;;;;;13.33;10.83;;;;;;;;;;5080837;28;20602;-80
2022/12/10 11:11:19;;;;;;;13.47;10.93;;;;;;;;;;5078092;28;20199;-79
2022/12/10 11:13:46;;;;;;;14.63;12.23;;;;;;;;;;5082605;28;20250;-80
2022/12/10 11:16:18;;;;;;;16.10;12.97;;;;;;;;;;5077420;28;20678;-79
2022/12/10 11:18:53;;;;;;;14.27;11.70;;;;;;;;;;5077927;28;20281;-81
2022/12/10 11:21:22;;;;;;;14.47;10.70;;;;;;;;;;5082232;28;20289;-80
2022/12/10 11:23:51;;;;;;;12.63;10.23;;;;;;;;;;5076947;28;20280;-81
2022/12/10 11:26:30;;;;;;;12.17;10.13;;;;;;;;;;5072359;28;20259;-80
2022/12/10 11:29:03;;;;;;;14.43;11.03;;;;;;;;;;5079217;28;20775;-80
2022/12/10 11:31:35;;;;;;;14.03;11.23;;;;;;;;;;5071771;28;20713;-80
2022/12/10 11:34:07;;;;;;;13.33;11.70;;;;;;;;;;5088685;28;20250;-80
2022/12/10 11:36:40;;;;;;;13.87;11.03;;;;;;;;;;5082724;28;20190;-81
2022/12/10 11:39:14;;;;;;;11.70;9.40;;;;;;;;;;5083235;28;20681;-82
2022/12/10 11:41:47;;;;;;;11.40;9.67;;;;;;;;;;5074802;28;20202;-82
2022/12/10 11:44:22;;;;;;;10.13;8.90;;;;;;;;;;5078825;28;20190;-81
2022/12/10 11:46:59;;;;;;;11.60;9.17;;;;;;;;;;5071370;28;20199;-82
2022/12/10 11:49:30;;;;;;;13.57;10.30;;;;;;;;;;5082209;28;20198;-82
2022/12/10 11:52:04;;;;;;;12.13;9.87;;;;;;;;;;5083062;28;20683;-82
2022/12/10 11:54:39;;;;;;;11.73;10.47;;;;;;;;;;5080882;28;20309;-83
2022/12/10 11:57:19;;;;;;;14.87;11.70;;;;;;;;;;5089231;28;20730;-83
2022/12/10 11:59:49;;;;;;;14.27;12.20;;;;;;;;;;5092814;28;20237;-82
2022/12/10 12:02:30;;;;;;;13.07;10.90;;;;;;;;;;5089090;28;20248;-82
2022/12/10 12:05:07;;;;;;;14.60;11.87;;;;;;;;;;5082317;28;20746;-81
2022/12/10 12:07:40;;;;;;;14.80;11.40;;;;;;;;;;5080449;28;20210;-81
2022/12/10 12:10:19;;;;;;;16.50;13.13;;;;;;;;;;5080712;28;20235;-81
2022/12/10 12:12:56;;;;;;;14.13;12.07;;;;;;;;;;5075925;28;20199;-80
2022/12/10 12:15:29;;;;;;;17.43;13.67;;;;;;;;;;5091910;28;20279;-81
2022/12/10 12:17:57;;;;;;;17.23;13.93;;;;;;;;;;5086104;28;20207;-82
2022/12/10 12:20:26;;;;;;;17.30;13.67;;;;;;;;;;5095797;28;20203;-81
2022/12/10 12:22:57;;;;;;;19.93;15.80;;;;;;;;;;5087163;28;20222;-80
2022/12/10 12:25:26;;;;;;;23.27;16.23;;;;;;;;;;5082549;28;20849;-80
2022/12/10 12:27:57;;;;;;;22.73;16.70;;;;;;;;;;5076817;28;20208;-80
2022/12/10 12:30:24;;;;;;;21.33;15.63;;;;;;;;;;5089490;28;20728;-83
2022/12/10 12:32:55;;;;;;;15.20;12.33;;;;;;;;;;5093144;28;20682;-83
2022/12/10 12:35:25;;;;;;;17.33;13.17;;;;;;;;;;5089488;28;20689;-85
2022/12/10 12:37:56;;;;;;;18.23;13.83;;;;;;;;;;5094289;28;20233;-86
2022/12/10 12:40:29;;;;;;;18.03;12.23;;;;;;;;;;5078396;28;20962;-85
2022/12/10 12:42:59;;;;;;;14.27;12.20;;;;;;;;;;5077986;28;20199;-85
2022/12/10 12:45:30;;;;;;;14.60;12.43;;;;;;;;;;5086393;28;20289;-83
2022/12/10 12:48:00;;;;;;;15.57;12.87;;;;;;;;;;5091003;28;20655;-87
2022/12/10 12:50:30;;;;;;;13.50;11.93;;;;;;;;;;5084225;28;20244;-84
2022/12/10 12:52:59;;;;;;;15.27;13.37;;;;;;;;;;5089379;28;20200;-84
2022/12/10 12:55:31;;;;;;;15.03;11.87;;;;;;;;;;5083052;28;20253;-84
2022/12/10 12:58:03;;;;;;;16.93;12.50;;;;;;;;;;5082772;28;20203;-84
2022/12/10 13:00:35;;;;;;;16.57;13.20;;;;;;;;;;5086398;28;20841;-84
2022/12/10 13:03:09;;;;;;;13.63;11.63;;;;;;;;;;5095101;28;20275;-84
2022/12/10 13:05:38;;;;;;;15.23;11.70;;;;;;;;;;5074721;28;20191;-84
2022/12/10 13:08:32;;;;;;;14.53;11.87;;;;;;;;;;5075317;28;20241;-84
2022/12/10 13:11:02;;;;;;;13.20;10.87;;;;;;;;;;5057852;28;20203;-84
2022/12/10 13:13:31;;;;;;;13.53;10.70;;;;;;;;;;5066764;28;20601;-85
2022/12/10 13:16:18;;;;;;;13.10;10.97;;;;;;;;;;5043930;28;20219;-84
2022/12/10 13:18:45;;;;;;;15.80;11.63;;;;;;;;;;5063619;28;20272;-84
2022/12/10 13:21:34;;;;;;;11.20;10.00;;;;;;;;;;5062733;28;20206;-84
2022/12/10 13:24:08;;;;;;;11.77;10.57;;;;;;;;;;5055841;28;20223;-84
2022/12/10 13:26:38;;;;;;;13.53;10.37;;;;;;;;;;5054274;28;20231;-84
2022/12/10 13:29:24;;;;;;;13.07;10.37;;;;;;;;;;5061345;28;20265;-84
2022/12/10 13:31:57;;;;;;;11.70;10.10;;;;;;;;;;5065958;28;20654;-83
2022/12/10 13:34:31;;;;;;;12.70;10.60;;;;;;;;;;5055964;28;20219;-84
2022/12/10 13:37:07;;;;;;;11.17;9.10;;;;;;;;;;5061000;28;20580;-84
2022/12/10 13:39:35;;;;;;;11.53;8.97;;;;;;;;;;5058387;28;20618;-83
2022/12/10 13:45:06;;;;;;;11.03;8.33;;;;;;;;;;5047573;28;20223;-84
2022/12/10 13:47:34;;;;;;;11.60;9.40;;;;;;;;;;5070060;28;20198;-83
2022/12/10 13:50:02;;;;;;;11.67;8.97;;;;;;;;;;5086751;28;20256;-84
2022/12/10 13:52:33;;;;;;;9.77;7.70;;;;;;;;;;5086278;28;20750;-84
2022/12/10 13:55:09;;;;;;;8.57;7.60;;;;;;;;;;5073041;28;20275;-84
2022/12/10 13:57:43;;;;;;;11.60;7.73;;;;;;;;;;5072980;28;20221;-84
2022/12/10 14:00:16;;;;;;;10.33;7.33;;;;;;;;;;5072883;28;20234;-84
2022/12/10 14:03:01;;;;;;;10.40;7.40;;;;;;;;;;5073128;28;20300;-83
2022/12/10 14:05:49;;;;;;;8.63;7.43;;;;;;;;;;5082664;28;20201;-83
2022/12/10 14:08:19;;;;;;;9.40;7.47;;;;;;;;;;5027902;28;20204;-82
2022/12/10 14:10:47;;;;;;;9.53;6.93;;;;;;;;;;5019862;28;20283;-82
2022/12/10 14:13:16;;;;;;;10.87;8.10;;;;;;;;;;5025066;28;20227;-84
2022/12/10 14:15:48;;;;;;;9.10;7.17;;;;;;;;;;5025565;28;20751;-84
2022/12/10 14:18:18;;;;;;;9.47;7.90;;;;;;;;;;5021919;28;20750;-84
2022/12/10 14:20:46;;;;;;;11.37;8.20;;;;;;;;;;5011349;28;20223;-83
2022/12/10 14:23:37;;;;;;;11.07;7.90;;;;;;;;;;5029646;28;20207;-83
2022/12/10 14:26:06;;;;;;;12.87;8.70;;;;;;;;;;5030792;28;20227;-84
2022/12/10 14:28:34;;;;;;;12.53;8.83;;;;;;;;;;5030463;28;20237;-83
2022/12/10 14:31:03;;;;;;;10.37;8.33;;;;;;;;;;5030205;28;20204;-84
2022/12/10 14:33:31;;;;;;;11.67;8.53;;;;;;;;;;5030084;28;20650;-84
2022/12/10 14:35:59;;;;;;;14.57;8.90;;;;;;;;;;5029734;28;20231;-84
2022/12/10 14:38:29;;;;;;;13.00;9.50;;;;;;;;;;5020501;28;20232;-84
2022/12/10 14:40:56;;;;;;;13.50;9.33;;;;;;;;;;5012857;28;20293;-84
2022/12/10 14:43:25;;;;;;;11.00;8.47;;;;;;;;;;5029686;28;20196;-84
2022/12/10 14:45:55;;;;;;;11.57;8.60;;;;;;;;;;5066264;28;20198;-84